LAN176 SAAR-SCEL
Flight info
| Callsign | LAN176 |
|---|---|
| Flight time | 1h 39m |
| Altitude | 38000 |
| Route | GEDUK1G GEDUK W55 MJZ UT653 KOPSI UZ105 UMKAL UMKAL7C |
| Aircraft | A319/M-SDE3FGHIRWY/LB1 |
Departure
| Time | 2026-04-21 17:58 |
|---|---|
| Airport | Rosario Islas Malvinas International Airport (SAAR) |
Arrival
| Time | 2026-04-21 19:37 |
|---|---|
| Airport | Comodoro Arturo Merino Benítez International Airport (SCEL) |
| Time | Latitude | Longitude | Altitude | Speed | Heading |
|---|---|---|---|---|---|
| 2026-04-21 17:36 | -32.91686 | -60.78143 | 87 ft | 0 kts | 111° |
| 2026-04-21 17:48 | -32.91685 | -60.78143 | 87 ft | 0 kts | 111° |
| 2026-04-21 17:48 | -32.91685 | -60.78144 | 87 ft | 0 kts | 111° |
| 2026-04-21 17:49 | -32.91680 | -60.78159 | 87 ft | 2 kts | 111° |
| 2026-04-21 17:49 | -32.91675 | -60.78175 | 87 ft | 2 kts | 111° |
| 2026-04-21 17:49 | -32.91670 | -60.78192 | 87 ft | 2 kts | 111° |
| 2026-04-21 17:49 | -32.91665 | -60.78209 | 87 ft | 2 kts | 111° |
| 2026-04-21 17:50 | -32.91659 | -60.78226 | 87 ft | 2 kts | 111° |
| 2026-04-21 17:50 | -32.91656 | -60.78236 | 87 ft | 2 kts | 112° |
| 2026-04-21 17:50 | -32.91655 | -60.78254 | 87 ft | 2 kts | 70° |
| 2026-04-21 17:50 | -32.91663 | -60.78269 | 87 ft | 2 kts | 35° |
| 2026-04-21 17:51 | -32.91670 | -60.78273 | 87 ft | 1 kts | 15° |
| 2026-04-21 17:51 | -32.91674 | -60.78275 | 87 ft | 0 kts | 20° |
| 2026-04-21 17:53 | -32.91670 | -60.78273 | 87 ft | 2 kts | 21° |
| 2026-04-21 17:54 | -32.91611 | -60.78245 | 88 ft | 17 kts | 21° |
| 2026-04-21 17:54 | -32.91490 | -60.78190 | 87 ft | 19 kts | 20° |
| 2026-04-21 17:54 | -32.91370 | -60.78211 | 88 ft | 18 kts | 321° |
| 2026-04-21 17:54 | -32.91268 | -60.78305 | 90 ft | 18 kts | 321° |
| 2026-04-21 17:55 | -32.91166 | -60.78401 | 92 ft | 19 kts | 321° |
| 2026-04-21 17:55 | -32.91042 | -60.78501 | 93 ft | 21 kts | 334° |
| 2026-04-21 17:55 | -32.90904 | -60.78559 | 95 ft | 21 kts | 349° |
| 2026-04-21 17:55 | -32.90749 | -60.78556 | 95 ft | 24 kts | 11° |
| 2026-04-21 17:56 | -32.90556 | -60.78513 | 93 ft | 32 kts | 11° |
| 2026-04-21 17:56 | -32.90305 | -60.78455 | 94 ft | 40 kts | 10° |
| 2026-04-21 17:56 | -32.90020 | -60.78392 | 91 ft | 41 kts | 12° |
| 2026-04-21 17:56 | -32.89743 | -60.78327 | 90 ft | 39 kts | 12° |
| 2026-04-21 17:57 | -32.89478 | -60.78267 | 87 ft | 38 kts | 9° |
| 2026-04-21 17:57 | -32.89224 | -60.78211 | 87 ft | 28 kts | 10° |
| 2026-04-21 17:57 | -32.89099 | -60.78159 | 87 ft | 15 kts | 46° |
| 2026-04-21 17:57 | -32.89062 | -60.78164 | 87 ft | 13 kts | 217° |
| 2026-04-21 17:58 | -32.89203 | -60.78206 | 87 ft | 45 kts | 192° |
| 2026-04-21 17:58 | -32.89779 | -60.78338 | 91 ft | 119 kts | 191° |
| 2026-04-21 17:58 | -32.90801 | -60.78566 | 205 ft | 167 kts | 191° |
| 2026-04-21 17:58 | -32.91939 | -60.78804 | 926 ft | 170 kts | 192° |
| 2026-04-21 17:59 | -32.93084 | -60.79060 | 1824 ft | 169 kts | 192° |
| 2026-04-21 17:59 | -32.94239 | -60.79321 | 2559 ft | 177 kts | 192° |
| 2026-04-21 17:59 | -32.95509 | -60.79619 | 3099 ft | 198 kts | 192° |
| 2026-04-21 17:59 | -32.96958 | -60.79950 | 3646 ft | 221 kts | 192° |
| 2026-04-21 18:00 | -32.98503 | -60.80306 | 4402 ft | 234 kts | 193° |
| 2026-04-21 18:00 | -33.00093 | -60.80672 | 5344 ft | 238 kts | 196° |
| 2026-04-21 18:00 | -33.01569 | -60.81493 | 6253 ft | 235 kts | 227° |
| 2026-04-21 18:00 | -33.02469 | -60.83075 | 7010 ft | 240 kts | 255° |
| 2026-04-21 18:01 | -33.02582 | -60.85090 | 7631 ft | 252 kts | 282° |
| 2026-04-21 18:01 | -33.02100 | -60.87134 | 8389 ft | 263 kts | 288° |
| 2026-04-21 18:01 | -33.01575 | -60.89195 | 9349 ft | 265 kts | 289° |
| 2026-04-21 18:01 | -33.01043 | -60.91287 | 10359 ft | 266 kts | 289° |
| 2026-04-21 18:02 | -33.00499 | -60.93394 | 11047 ft | 277 kts | 289° |
| 2026-04-21 18:02 | -32.99912 | -60.95661 | 11529 ft | 295 kts | 289° |
| 2026-04-21 18:02 | -32.99300 | -60.98043 | 12166 ft | 306 kts | 289° |
| 2026-04-21 18:02 | -32.98687 | -61.00444 | 13023 ft | 309 kts | 288° |
| 2026-04-21 18:03 | -32.98063 | -61.02890 | 13868 ft | 311 kts | 288° |
| 2026-04-21 18:03 | -32.97434 | -61.05357 | 14673 ft | 314 kts | 288° |
| 2026-04-21 18:03 | -32.96806 | -61.07823 | 15469 ft | 317 kts | 288° |
| 2026-04-21 18:03 | -32.96167 | -61.10324 | 16251 ft | 319 kts | 287° |
| 2026-04-21 18:04 | -32.95523 | -61.12849 | 17002 ft | 322 kts | 287° |
| 2026-04-21 18:04 | -32.94870 | -61.15401 | 17740 ft | 324 kts | 287° |
| 2026-04-21 18:04 | -32.94214 | -61.17956 | 18469 ft | 326 kts | 287° |
| 2026-04-21 18:04 | -32.93563 | -61.20501 | 19147 ft | 328 kts | 287° |
| 2026-04-21 18:05 | -32.92894 | -61.23114 | 19825 ft | 330 kts | 286° |
| 2026-04-21 18:05 | -32.92230 | -61.25701 | 20499 ft | 332 kts | 286° |
| 2026-04-21 18:05 | -32.91549 | -61.28349 | 21153 ft | 334 kts | 286° |
| 2026-04-21 18:05 | -32.90870 | -61.30992 | 21784 ft | 336 kts | 286° |
| 2026-04-21 18:06 | -32.90194 | -61.33620 | 22389 ft | 338 kts | 286° |
| 2026-04-21 18:06 | -32.89500 | -61.36309 | 23005 ft | 340 kts | 286° |
| 2026-04-21 18:06 | -32.88811 | -61.38982 | 23580 ft | 341 kts | 286° |
| 2026-04-21 18:06 | -32.88113 | -61.41683 | 24144 ft | 342 kts | 286° |
| 2026-04-21 18:07 | -32.87424 | -61.44350 | 24673 ft | 344 kts | 286° |
| 2026-04-21 18:07 | -32.86720 | -61.47074 | 25165 ft | 346 kts | 286° |
| 2026-04-21 18:07 | -32.86010 | -61.49818 | 25526 ft | 352 kts | 286° |
| 2026-04-21 18:07 | -32.85280 | -61.52632 | 25979 ft | 354 kts | 286° |
| 2026-04-21 18:08 | -32.84560 | -61.55405 | 26454 ft | 355 kts | 286° |
| 2026-04-21 18:08 | -32.83831 | -61.58208 | 26931 ft | 356 kts | 286° |
| 2026-04-21 18:08 | -32.83101 | -61.61014 | 27367 ft | 358 kts | 286° |
| 2026-04-21 18:08 | -32.82367 | -61.63840 | 27789 ft | 359 kts | 286° |
| 2026-04-21 18:09 | -32.81627 | -61.66685 | 28182 ft | 362 kts | 287° |
| 2026-04-21 18:09 | -32.80883 | -61.69544 | 28449 ft | 368 kts | 286° |
| 2026-04-21 18:09 | -32.80125 | -61.72456 | 28792 ft | 371 kts | 286° |
| 2026-04-21 18:09 | -32.79361 | -61.75393 | 29206 ft | 372 kts | 287° |
| 2026-04-21 18:10 | -32.78603 | -61.78290 | 29586 ft | 373 kts | 287° |
| 2026-04-21 18:10 | -32.77826 | -61.81252 | 29949 ft | 375 kts | 287° |
| 2026-04-21 18:10 | -32.77058 | -61.84181 | 30334 ft | 374 kts | 287° |
| 2026-04-21 18:10 | -32.76288 | -61.87116 | 30819 ft | 372 kts | 286° |
| 2026-04-21 18:11 | -32.75521 | -61.90035 | 31325 ft | 368 kts | 286° |
| 2026-04-21 18:11 | -32.74762 | -61.92913 | 31784 ft | 365 kts | 286° |
| 2026-04-21 18:11 | -32.74010 | -61.95770 | 32221 ft | 363 kts | 286° |
| 2026-04-21 18:11 | -32.73261 | -61.98608 | 32643 ft | 361 kts | 285° |
| 2026-04-21 18:12 | -32.72516 | -62.01428 | 33116 ft | 358 kts | 285° |
| 2026-04-21 18:12 | -32.71782 | -62.04217 | 33597 ft | 356 kts | 286° |
| 2026-04-21 18:12 | -32.71040 | -62.07017 | 34034 ft | 355 kts | 285° |
| 2026-04-21 18:12 | -32.70298 | -62.09817 | 34446 ft | 355 kts | 285° |
| 2026-04-21 18:13 | -32.69561 | -62.12601 | 34874 ft | 353 kts | 286° |
| 2026-04-21 18:13 | -32.68875 | -62.15352 | 35285 ft | 352 kts | 284° |
| 2026-04-21 18:13 | -32.68290 | -62.18138 | 35682 ft | 350 kts | 282° |
| 2026-04-21 18:13 | -32.67775 | -62.20961 | 36056 ft | 349 kts | 282° |
| 2026-04-21 18:14 | -32.66754 | -62.26553 | 36606 ft | 350 kts | 281° |
| 2026-04-21 18:14 | -32.66242 | -62.29371 | 36815 ft | 351 kts | 282° |
| 2026-04-21 18:14 | -32.65727 | -62.32205 | 37006 ft | 353 kts | 282° |
| 2026-04-21 18:15 | -32.65208 | -62.35055 | 37206 ft | 354 kts | 282° |
| 2026-04-21 18:15 | -32.64688 | -62.37918 | 37390 ft | 355 kts | 282° |
| 2026-04-21 18:15 | -32.64166 | -62.40785 | 37564 ft | 356 kts | 281° |
| 2026-04-21 18:15 | -32.63650 | -62.43615 | 37729 ft | 357 kts | 281° |
| 2026-04-21 18:16 | -32.63123 | -62.46509 | 37884 ft | 358 kts | 282° |
| 2026-04-21 18:16 | -32.62596 | -62.49403 | 38033 ft | 359 kts | 282° |
| 2026-04-21 18:16 | -32.62071 | -62.52267 | 38039 ft | 360 kts | 282° |
| 2026-04-21 18:17 | -32.61008 | -62.58080 | 38047 ft | 360 kts | 282° |
| 2026-04-21 18:17 | -32.59945 | -62.63862 | 38054 ft | 359 kts | 282° |
| 2026-04-21 18:18 | -32.58882 | -62.69640 | 38052 ft | 360 kts | 282° |
| 2026-04-21 18:18 | -32.57824 | -62.75404 | 38055 ft | 359 kts | 282° |
| 2026-04-21 18:19 | -32.56755 | -62.81188 | 38057 ft | 359 kts | 282° |
| 2026-04-21 18:19 | -32.55686 | -62.86940 | 38058 ft | 359 kts | 282° |
| 2026-04-21 18:20 | -32.54617 | -62.92700 | 38059 ft | 359 kts | 282° |
| 2026-04-21 18:20 | -32.53540 | -62.98466 | 38057 ft | 359 kts | 282° |
| 2026-04-21 18:21 | -32.52457 | -63.04237 | 38060 ft | 359 kts | 282° |
| 2026-04-21 18:21 | -32.51380 | -63.09976 | 38061 ft | 359 kts | 282° |
| 2026-04-21 18:22 | -32.50295 | -63.15744 | 38063 ft | 359 kts | 283° |
| 2026-04-21 18:22 | -32.49211 | -63.21491 | 38063 ft | 359 kts | 283° |
| 2026-04-21 18:23 | -32.48123 | -63.27230 | 38060 ft | 359 kts | 283° |
| 2026-04-21 18:23 | -32.47027 | -63.33001 | 38062 ft | 359 kts | 283° |
| 2026-04-21 18:24 | -32.45932 | -63.38746 | 38060 ft | 359 kts | 283° |
| 2026-04-21 18:24 | -32.44835 | -63.44495 | 38064 ft | 359 kts | 283° |
| 2026-04-21 18:25 | -32.43737 | -63.50242 | 38066 ft | 359 kts | 283° |
| 2026-04-21 18:25 | -32.42632 | -63.56007 | 38063 ft | 360 kts | 283° |
| 2026-04-21 18:26 | -32.41532 | -63.61738 | 38064 ft | 359 kts | 283° |
| 2026-04-21 18:26 | -32.40427 | -63.67493 | 38066 ft | 359 kts | 284° |
| 2026-04-21 18:27 | -32.39317 | -63.73257 | 38059 ft | 359 kts | 283° |
| 2026-04-21 18:27 | -32.38204 | -63.79006 | 38065 ft | 359 kts | 283° |
| 2026-04-21 18:28 | -32.37090 | -63.84754 | 38061 ft | 359 kts | 283° |
| 2026-04-21 18:28 | -32.35982 | -63.90464 | 38060 ft | 359 kts | 284° |
| 2026-04-21 18:29 | -32.34855 | -63.96231 | 38060 ft | 359 kts | 283° |
| 2026-04-21 18:29 | -32.33732 | -64.01955 | 38064 ft | 359 kts | 283° |
| 2026-04-21 18:30 | -32.32600 | -64.07719 | 38075 ft | 359 kts | 283° |
| 2026-04-21 18:30 | -32.31479 | -64.13419 | 38070 ft | 358 kts | 283° |
| 2026-04-21 18:31 | -32.30348 | -64.19140 | 38060 ft | 359 kts | 284° |
| 2026-04-21 18:31 | -32.29212 | -64.24873 | 38067 ft | 358 kts | 283° |
| 2026-04-21 18:32 | -32.28075 | -64.30594 | 38075 ft | 359 kts | 284° |
| 2026-04-21 18:32 | -32.26937 | -64.36310 | 38079 ft | 359 kts | 284° |
| 2026-04-21 18:33 | -32.25805 | -64.41993 | 38073 ft | 358 kts | 284° |
| 2026-04-21 18:33 | -32.24661 | -64.47715 | 38072 ft | 358 kts | 284° |
| 2026-04-21 18:34 | -32.23519 | -64.53419 | 38073 ft | 358 kts | 284° |
| 2026-04-21 18:34 | -32.22372 | -64.59141 | 38077 ft | 359 kts | 284° |
| 2026-04-21 18:35 | -32.21417 | -64.63886 | 38086 ft | 358 kts | 284° |
| 2026-04-21 18:35 | -32.20071 | -64.70578 | 38087 ft | 358 kts | 284° |
| 2026-04-21 18:36 | -32.18916 | -64.76299 | 38091 ft | 359 kts | 284° |
| 2026-04-21 18:36 | -32.17767 | -64.81984 | 38091 ft | 359 kts | 284° |
| 2026-04-21 18:37 | -32.16604 | -64.87695 | 38100 ft | 358 kts | 284° |
| 2026-04-21 18:37 | -32.15442 | -64.93413 | 38105 ft | 358 kts | 285° |
| 2026-04-21 18:38 | -32.14282 | -64.99078 | 38099 ft | 358 kts | 285° |
| 2026-04-21 18:38 | -32.13108 | -65.04797 | 38105 ft | 358 kts | 284° |
| 2026-04-21 18:39 | -32.11942 | -65.10482 | 38101 ft | 358 kts | 284° |
| 2026-04-21 18:39 | -32.10773 | -65.16157 | 38106 ft | 357 kts | 284° |
| 2026-04-21 18:40 | -32.09605 | -65.21821 | 38086 ft | 357 kts | 284° |
| 2026-04-21 18:40 | -32.08624 | -65.26559 | 38092 ft | 358 kts | 284° |
| 2026-04-21 18:41 | -32.07246 | -65.33192 | 38084 ft | 357 kts | 284° |
| 2026-04-21 18:41 | -32.06068 | -65.38849 | 38073 ft | 357 kts | 284° |
| 2026-04-21 18:42 | -32.04879 | -65.44538 | 38073 ft | 357 kts | 284° |
| 2026-04-21 18:42 | -32.03704 | -65.50195 | 38063 ft | 357 kts | 284° |
| 2026-04-21 18:43 | -32.02522 | -65.55862 | 38058 ft | 357 kts | 284° |
| 2026-04-21 18:43 | -32.01340 | -65.61512 | 38065 ft | 357 kts | 284° |
| 2026-04-21 18:44 | -32.00143 | -65.67213 | 38064 ft | 357 kts | 284° |
| 2026-04-21 18:44 | -31.98955 | -65.72865 | 38060 ft | 357 kts | 285° |
| 2026-04-21 18:45 | -31.97762 | -65.78519 | 38056 ft | 357 kts | 285° |
| 2026-04-21 18:45 | -31.96556 | -65.84193 | 38055 ft | 358 kts | 284° |
| 2026-04-21 18:46 | -31.95403 | -65.89877 | 38052 ft | 357 kts | 282° |
| 2026-04-21 18:46 | -31.94873 | -65.95673 | 38051 ft | 360 kts | 275° |
| 2026-04-21 18:47 | -31.95112 | -66.01566 | 38049 ft | 365 kts | 268° |
| 2026-04-21 18:47 | -31.96150 | -66.07413 | 38049 ft | 370 kts | 260° |
| 2026-04-21 18:48 | -31.97906 | -66.13154 | 38055 ft | 375 kts | 257° |
| 2026-04-21 18:48 | -31.99777 | -66.18857 | 38055 ft | 375 kts | 257° |
| 2026-04-21 18:49 | -32.01667 | -66.24571 | 38054 ft | 375 kts | 257° |
| 2026-04-21 18:49 | -32.03251 | -66.29343 | 38061 ft | 376 kts | 257° |
| 2026-04-21 18:50 | -32.05463 | -66.36020 | 38056 ft | 375 kts | 256° |
| 2026-04-21 18:50 | -32.07353 | -66.41727 | 38058 ft | 376 kts | 256° |
| 2026-04-21 18:51 | -32.09257 | -66.47486 | 38059 ft | 376 kts | 256° |
| 2026-04-21 18:51 | -32.10959 | -66.53240 | 38062 ft | 372 kts | 261° |
| 2026-04-21 18:52 | -32.12379 | -66.59096 | 38059 ft | 372 kts | 261° |
| 2026-04-21 18:52 | -32.13779 | -66.64947 | 38059 ft | 372 kts | 261° |
| 2026-04-21 18:53 | -32.15176 | -66.70830 | 38059 ft | 371 kts | 261° |
| 2026-04-21 18:53 | -32.16564 | -66.76678 | 38064 ft | 371 kts | 261° |
| 2026-04-21 18:54 | -32.17946 | -66.82533 | 38062 ft | 373 kts | 262° |
| 2026-04-21 18:54 | -32.19336 | -66.88425 | 38061 ft | 373 kts | 261° |
| 2026-04-21 18:55 | -32.20489 | -66.93317 | 38062 ft | 374 kts | 262° |
| 2026-04-21 18:55 | -32.22112 | -67.00238 | 38065 ft | 374 kts | 261° |
| 2026-04-21 18:56 | -32.23491 | -67.06125 | 38066 ft | 375 kts | 261° |
| 2026-04-21 18:56 | -32.24875 | -67.12045 | 38068 ft | 375 kts | 261° |
| 2026-04-21 18:57 | -32.26259 | -67.17982 | 38067 ft | 374 kts | 261° |
| 2026-04-21 18:57 | -32.27633 | -67.23878 | 38069 ft | 375 kts | 261° |
| 2026-04-21 18:58 | -32.29011 | -67.29820 | 38071 ft | 374 kts | 261° |
| 2026-04-21 18:58 | -32.30388 | -67.35757 | 38070 ft | 375 kts | 261° |
| 2026-04-21 18:59 | -32.31758 | -67.41692 | 38072 ft | 374 kts | 261° |
| 2026-04-21 18:59 | -32.33122 | -67.47598 | 38074 ft | 375 kts | 261° |
| 2026-04-21 19:00 | -32.34479 | -67.53510 | 38071 ft | 375 kts | 261° |
| 2026-04-21 19:00 | -32.35846 | -67.59455 | 38076 ft | 376 kts | 261° |
| 2026-04-21 19:01 | -32.37205 | -67.65405 | 38077 ft | 375 kts | 261° |
| 2026-04-21 19:01 | -32.38558 | -67.71343 | 38075 ft | 375 kts | 261° |
| 2026-04-21 19:02 | -32.39913 | -67.77293 | 38077 ft | 375 kts | 261° |
| 2026-04-21 19:02 | -32.41264 | -67.83243 | 38077 ft | 375 kts | 261° |
| 2026-04-21 19:03 | -32.42613 | -67.89185 | 38079 ft | 376 kts | 262° |
| 2026-04-21 19:03 | -32.43956 | -67.95126 | 38080 ft | 376 kts | 262° |
| 2026-04-21 19:04 | -32.45307 | -68.01112 | 38082 ft | 375 kts | 262° |
| 2026-04-21 19:04 | -32.46650 | -68.07078 | 38079 ft | 375 kts | 262° |
| 2026-04-21 19:05 | -32.47985 | -68.13018 | 38075 ft | 376 kts | 262° |
| 2026-04-21 19:05 | -32.49323 | -68.19006 | 38082 ft | 376 kts | 262° |
| 2026-04-21 19:06 | -32.50653 | -68.24972 | 38083 ft | 375 kts | 262° |
| 2026-04-21 19:06 | -32.51982 | -68.30944 | 38080 ft | 377 kts | 262° |
| 2026-04-21 19:07 | -32.53308 | -68.36911 | 38084 ft | 377 kts | 261° |
| 2026-04-21 19:07 | -32.54641 | -68.42894 | 38082 ft | 377 kts | 261° |
| 2026-04-21 19:08 | -32.55973 | -68.48891 | 38085 ft | 377 kts | 262° |
| 2026-04-21 19:08 | -32.57302 | -68.54911 | 38090 ft | 377 kts | 261° |
| 2026-04-21 19:09 | -32.58619 | -68.60868 | 38090 ft | 377 kts | 261° |
| 2026-04-21 19:09 | -32.59938 | -68.66891 | 38106 ft | 377 kts | 261° |
| 2026-04-21 19:10 | -32.61255 | -68.72899 | 38102 ft | 377 kts | 262° |
| 2026-04-21 19:10 | -32.62573 | -68.78934 | 38107 ft | 378 kts | 262° |
| 2026-04-21 19:11 | -32.63885 | -68.84972 | 38123 ft | 379 kts | 262° |
| 2026-04-21 19:11 | -32.65198 | -68.91003 | 38131 ft | 379 kts | 261° |
| 2026-04-21 19:12 | -32.66285 | -68.96015 | 38136 ft | 378 kts | 262° |
| 2026-04-21 19:12 | -32.67812 | -69.03064 | 38150 ft | 378 kts | 262° |
| 2026-04-21 19:13 | -32.69122 | -69.09103 | 38164 ft | 378 kts | 262° |
| 2026-04-21 19:13 | -32.70419 | -69.15130 | 38229 ft | 377 kts | 261° |
| 2026-04-21 19:14 | -32.71714 | -69.21156 | 37892 ft | 376 kts | 262° |
| 2026-04-21 19:14 | -32.72361 | -69.24165 | 37632 ft | 373 kts | 262° |
| 2026-04-21 19:14 | -32.72992 | -69.27108 | 37380 ft | 368 kts | 262° |
| 2026-04-21 19:14 | -32.73615 | -69.30029 | 37121 ft | 366 kts | 262° |
| 2026-04-21 19:15 | -32.74233 | -69.32933 | 36869 ft | 364 kts | 262° |
| 2026-04-21 19:15 | -32.74858 | -69.35861 | 36612 ft | 365 kts | 262° |
| 2026-04-21 19:15 | -32.75473 | -69.38747 | 36267 ft | 365 kts | 262° |
| 2026-04-21 19:15 | -32.76090 | -69.41658 | 35765 ft | 365 kts | 262° |
| 2026-04-21 19:16 | -32.76712 | -69.44578 | 35141 ft | 365 kts | 262° |
| 2026-04-21 19:16 | -32.77328 | -69.47495 | 34480 ft | 366 kts | 262° |
| 2026-04-21 19:16 | -32.77951 | -69.50434 | 33789 ft | 367 kts | 262° |
| 2026-04-21 19:16 | -32.78561 | -69.53331 | 33114 ft | 369 kts | 261° |
| 2026-04-21 19:17 | -32.79816 | -69.59278 | 31628 ft | 375 kts | 260° |
| 2026-04-21 19:17 | -32.80447 | -69.62266 | 30852 ft | 378 kts | 259° |
| 2026-04-21 19:17 | -32.81083 | -69.65306 | 30015 ft | 382 kts | 259° |
| 2026-04-21 19:18 | -32.81730 | -69.68387 | 29021 ft | 387 kts | 259° |
| 2026-04-21 19:18 | -32.82385 | -69.71475 | 28287 ft | 385 kts | 259° |
| 2026-04-21 19:18 | -32.83023 | -69.74505 | 27728 ft | 379 kts | 259° |
| 2026-04-21 19:18 | -32.83655 | -69.77512 | 27183 ft | 373 kts | 259° |
| 2026-04-21 19:19 | -32.84275 | -69.80447 | 26663 ft | 367 kts | 259° |
| 2026-04-21 19:19 | -32.84891 | -69.83388 | 26104 ft | 362 kts | 259° |
| 2026-04-21 19:19 | -32.85495 | -69.86280 | 25563 ft | 358 kts | 259° |
| 2026-04-21 19:19 | -32.86085 | -69.89114 | 25012 ft | 354 kts | 259° |
| 2026-04-21 19:20 | -32.86670 | -69.91924 | 24460 ft | 352 kts | 259° |
| 2026-04-21 19:20 | -32.87255 | -69.94737 | 23890 ft | 349 kts | 259° |
| 2026-04-21 19:20 | -32.87739 | -69.97523 | 23342 ft | 345 kts | 263° |
| 2026-04-21 19:20 | -32.87981 | -70.00372 | 22810 ft | 342 kts | 269° |
| 2026-04-21 19:21 | -32.87980 | -70.03183 | 22241 ft | 341 kts | 274° |
| 2026-04-21 19:21 | -32.87778 | -70.05969 | 21672 ft | 340 kts | 276° |
| 2026-04-21 19:21 | -32.87532 | -70.08763 | 21126 ft | 340 kts | 277° |
| 2026-04-21 19:21 | -32.87283 | -70.11525 | 20571 ft | 340 kts | 277° |
| 2026-04-21 19:22 | -32.87029 | -70.14318 | 20033 ft | 339 kts | 277° |
| 2026-04-21 19:22 | -32.86774 | -70.17104 | 19523 ft | 339 kts | 277° |
| 2026-04-21 19:22 | -32.86522 | -70.19843 | 19027 ft | 338 kts | 278° |
| 2026-04-21 19:22 | -32.86269 | -70.22595 | 18748 ft | 328 kts | 278° |
| 2026-04-21 19:23 | -32.86024 | -70.25230 | 18623 ft | 314 kts | 278° |
| 2026-04-21 19:23 | -32.85789 | -70.27749 | 18548 ft | 300 kts | 278° |
| 2026-04-21 19:23 | -32.85566 | -70.30173 | 18531 ft | 288 kts | 278° |
| 2026-04-21 19:23 | -32.85346 | -70.32511 | 18533 ft | 282 kts | 278° |
| 2026-04-21 19:24 | -32.85132 | -70.34787 | 18408 ft | 282 kts | 278° |
| 2026-04-21 19:24 | -32.84913 | -70.37132 | 17759 ft | 290 kts | 279° |
| 2026-04-21 19:24 | -32.84686 | -70.39534 | 17150 ft | 297 kts | 278° |
| 2026-04-21 19:24 | -32.84454 | -70.41999 | 16547 ft | 302 kts | 278° |
| 2026-04-21 19:25 | -32.84221 | -70.44477 | 16036 ft | 303 kts | 278° |
| 2026-04-21 19:25 | -32.83989 | -70.46954 | 15699 ft | 298 kts | 278° |
| 2026-04-21 19:25 | -32.83765 | -70.49361 | 15366 ft | 294 kts | 278° |
| 2026-04-21 19:25 | -32.83542 | -70.51745 | 15058 ft | 289 kts | 279° |
| 2026-04-21 19:26 | -32.83319 | -70.54131 | 14688 ft | 288 kts | 279° |
| 2026-04-21 19:26 | -32.83096 | -70.56459 | 14258 ft | 287 kts | 279° |
| 2026-04-21 19:26 | -32.82890 | -70.58836 | 13860 ft | 286 kts | 275° |
| 2026-04-21 19:26 | -32.83250 | -70.61143 | 13345 ft | 295 kts | 247° |
| 2026-04-21 19:27 | -32.84530 | -70.63069 | 12809 ft | 303 kts | 225° |
| 2026-04-21 19:27 | -32.86197 | -70.64609 | 12189 ft | 305 kts | 221° |
| 2026-04-21 19:27 | -32.87879 | -70.66116 | 11589 ft | 304 kts | 222° |
| 2026-04-21 19:27 | -32.89542 | -70.67645 | 11034 ft | 301 kts | 222° |
| 2026-04-21 19:28 | -32.91189 | -70.69187 | 10475 ft | 299 kts | 223° |
| 2026-04-21 19:28 | -32.92813 | -70.70721 | 10084 ft | 297 kts | 223° |
| 2026-04-21 19:28 | -32.94416 | -70.72242 | 9688 ft | 295 kts | 223° |
| 2026-04-21 19:28 | -32.96015 | -70.73766 | 9365 ft | 290 kts | 222° |
| 2026-04-21 19:29 | -32.97570 | -70.75246 | 9414 ft | 282 kts | 223° |
| 2026-04-21 19:29 | -32.99065 | -70.76668 | 9404 ft | 266 kts | 223° |
| 2026-04-21 19:29 | -33.00468 | -70.78007 | 9416 ft | 251 kts | 223° |
| 2026-04-21 19:29 | -33.01801 | -70.79285 | 9379 ft | 241 kts | 224° |
| 2026-04-21 19:30 | -33.03082 | -70.80518 | 9173 ft | 235 kts | 224° |
| 2026-04-21 19:30 | -33.04399 | -70.81667 | 8758 ft | 236 kts | 209° |
| 2026-04-21 19:30 | -33.05953 | -70.82162 | 8383 ft | 232 kts | 185° |
| 2026-04-21 19:30 | -33.07570 | -70.82131 | 7923 ft | 230 kts | 178° |
| 2026-04-21 19:31 | -33.09139 | -70.82003 | 7450 ft | 227 kts | 176° |
| 2026-04-21 19:31 | -33.10692 | -70.81870 | 6973 ft | 223 kts | 176° |
| 2026-04-21 19:31 | -33.12227 | -70.81749 | 6494 ft | 219 kts | 176° |
| 2026-04-21 19:31 | -33.13740 | -70.81638 | 6006 ft | 215 kts | 176° |
| 2026-04-21 19:32 | -33.15216 | -70.81544 | 5691 ft | 207 kts | 177° |
| 2026-04-21 19:32 | -33.16611 | -70.81462 | 5415 ft | 198 kts | 177° |
| 2026-04-21 19:32 | -33.17965 | -70.81388 | 5156 ft | 189 kts | 177° |
| 2026-04-21 19:32 | -33.19257 | -70.81314 | 4918 ft | 181 kts | 177° |
| 2026-04-21 19:33 | -33.20095 | -70.81268 | 4755 ft | 177 kts | 178° |
| 2026-04-21 19:33 | -33.21707 | -70.81183 | 4445 ft | 170 kts | 177° |
| 2026-04-21 19:33 | -33.22865 | -70.81120 | 4229 ft | 166 kts | 178° |
| 2026-04-21 19:33 | -33.24013 | -70.81058 | 4011 ft | 161 kts | 178° |
| 2026-04-21 19:34 | -33.25122 | -70.81004 | 3804 ft | 157 kts | 179° |
| 2026-04-21 19:34 | -33.26198 | -70.80952 | 3605 ft | 155 kts | 179° |
| 2026-04-21 19:34 | -33.27264 | -70.80895 | 3433 ft | 149 kts | 179° |
| 2026-04-21 19:34 | -33.28267 | -70.80841 | 3228 ft | 142 kts | 179° |
| 2026-04-21 19:35 | -33.29266 | -70.80787 | 3049 ft | 141 kts | 179° |
| 2026-04-21 19:35 | -33.31153 | -70.80727 | 2691 ft | 137 kts | 178° |
| 2026-04-21 19:35 | -33.32079 | -70.80677 | 2493 ft | 134 kts | 176° |
| 2026-04-21 19:36 | -33.33002 | -70.80604 | 2298 ft | 130 kts | 176° |
| 2026-04-21 19:36 | -33.33902 | -70.80545 | 2121 ft | 128 kts | 178° |
| 2026-04-21 19:36 | -33.34789 | -70.80514 | 1974 ft | 126 kts | 175° |
| 2026-04-21 19:36 | -33.35661 | -70.80455 | 1851 ft | 123 kts | 175° |
| 2026-04-21 19:37 | -33.36517 | -70.80412 | 1711 ft | 122 kts | 175° |
| 2026-04-21 19:37 | -33.37374 | -70.80364 | 1583 ft | 120 kts | 175° |
| 2026-04-21 19:37 | -33.38117 | -70.80321 | 1567 ft | 84 kts | 178° |
| 2026-04-21 19:37 | -33.38538 | -70.80302 | 1567 ft | 42 kts | 176° |
| 2026-04-21 19:38 | -33.38819 | -70.80286 | 1567 ft | 38 kts | 176° |
| 2026-04-21 19:38 | -33.39079 | -70.80272 | 1566 ft | 35 kts | 176° |
| 2026-04-21 19:38 | -33.39239 | -70.80242 | 1566 ft | 34 kts | 165° |
| 2026-04-21 19:38 | -33.39415 | -70.80137 | 1566 ft | 10 kts | 145° |
| 2026-04-21 19:39 | -33.39485 | -70.80082 | 1566 ft | 13 kts | 147° |
| 2026-04-21 19:39 | -33.39533 | -70.79995 | 1566 ft | 13 kts | 87° |
| 2026-04-21 19:39 | -33.39529 | -70.79875 | 1566 ft | 15 kts | 90° |
| 2026-04-21 19:39 | -33.39525 | -70.79745 | 1566 ft | 15 kts | 85° |
| 2026-04-21 19:40 | -33.39523 | -70.79618 | 1566 ft | 15 kts | 87° |
| 2026-04-21 19:40 | -33.39518 | -70.79491 | 1566 ft | 17 kts | 88° |
| 2026-04-21 19:40 | -33.39510 | -70.79330 | 1566 ft | 19 kts | 86° |
| 2026-04-21 19:40 | -33.39504 | -70.79176 | 1566 ft | 18 kts | 88° |
| 2026-04-21 19:41 | -33.39500 | -70.79038 | 1566 ft | 12 kts | 92° |
| 2026-04-21 19:41 | -33.39547 | -70.79015 | 1566 ft | 7 kts | 186° |
| 2026-04-21 19:41 | -33.39573 | -70.79018 | 1566 ft | 0 kts | 184° |
| 2026-04-21 19:41 | -33.39574 | -70.79018 | 1566 ft | 0 kts | 184° |